Aérodrome :
LOGIN :

S'inscrire | Disclaimer

   EN    FR    IT 

 










Légende :    VFR   VFR Marginal   IFR   IFR Intensif   IFR Très Intensif
Visi : 
Plafond : 
>= 8 km
>= 3000ft
5 à 8 km
1000 à 3000 ft
1500m à 5 km
500 à 1000 ft
800 à 1500m
200 à 500 ft
< 800m
< 200 ft
Symboles :   Orages  Brouillard  Fortes neiges  Fortes précipitations  Vent > 20 kt
SIGMETs :   Divers  Orages  Givrage  Turbulence  Onde Orograph.  Cendres Volcan.







- Altitude de l'aérodrome : 52 ft
- Code IATA : IOM
- Voir les cartes d'approche


EGNS - Isle of Man

DERNIER METAR :
  • 172050Z 26013KT 230V300 9999 FEW020 SCT045 08/05 Q1024 NOSIG

METARs EXPIRÉS :
  • 172020Z 26014KT 220V300 9999 FEW020 BKN045 08/05 Q1024 NOSIG
  • 171950Z 26014KT 230V290 9999 FEW020 BKN044 08/05 Q1025 NOSIG
  • 171920Z 26013KT 230V300 9999 FEW023 BKN045 08/05 Q1025 NOSIG
  • 171850Z 26014KT 230V290 9999 FEW023 BKN042 09/05 Q1025 NOSIG
  • 171820Z 25012KT 220V290 9999 FEW025 BKN045 08/04 Q1025 NOSIG

TAF TAF EGNS
Valide du 17 à 18h jusqu'au 17 à 22h UTC


171700Z 1718/1722 27015KT 9999 FEW025
PROB30
TEMPO 1718/1722 27015G25KT
Pas de NOTAMs connus pour ce terrain.



MET'MAP, la Météo Aéronautique d'un coup d'oeil ! - Copyright ORBIFLY Décembre 2007 - Disclaimer

ORBIFLY MET'MAP TEAM :

Programmation & Développement : Alexandra Zaïnal
Conception & Développement : Baudouin d'Aumeries
Co-Programmation & Développement : Marc-Olivier Méhu
Soutien technique & logistique : Manuel Goepfert

Contact : metmap@orbifly.com




SOURCES & CREDITS :

   NOAA